CDT,Max TemperatureF,Mean TemperatureF,Min TemperatureF,Max Dew PointF,MeanDew PointF,Min DewpointF,Max Humidity, Mean Humidity, Min Humidity, Max Sea Level PressureIn, Mean Sea Level PressureIn, Min Sea Level PressureIn, Max VisibilityMiles, Mean VisibilityMiles, Min VisibilityMiles, Max Wind SpeedMPH, Mean Wind SpeedMPH, Max Gust SpeedMPH,PrecipitationIn, CloudCover, Events, WindDirDegrees
2013-3-1,26,24,21,21,18,14,93,78,68,30.35,30.27,30.18,10,9,4,15,10,17,0.00,8,Rain-Snow,360
2013-3-2,32,24,17,21,17,14,86,75,55,30.34,30.25,30.11,10,10,7,10,6,13,0.00,6,,246
2013-3-3,37,30,23,27,22,18,86,72,56,30.09,29.91,29.76,10,10,9,16,9,23,0.00,2,,138
2013-3-4,41,34,28,32,27,21,93,79,65,29.98,29.80,29.70,10,8,3,17,10,24,0.00,6,Snow,79
2013-3-5,32,28,23,27,21,18,93,78,69,30.34,30.13,29.97,10,8,0,29,17,41,0.00,7,Rain-Snow,316
2013-3-6,33,25,17,23,19,14,93,78,60,30.41,30.35,30.27,10,10,10,16,8,18,0.00,3,Snow,44
2013-3-7,42,30,19,30,23,16,93,77,53,30.29,30.22,30.13,10,10,6,18,10,25,0.00,0,,127
2013-3-8,53,40,26,37,31,23,93,72,47,30.21,30.10,29.94,10,9,3,21,8,31,0.05,2,Rain,131
2013-3-9,46,40,33,45,40,34,100,95,87,29.93,29.72,29.58,10,4,0,21,12,30,0.19,8,Fog-Rain-Snow,142
2013-3-10,33,28,23,34,26,21,100,92,86,29.88,29.82,29.69,10,3,0,26,18,38,0.14,8,Fog-Rain-Snow,358
2013-3-11,26,22,15,21,18,14,93,81,69,29.96,29.87,29.83,10,9,2,21,14,25,0.00,6,Rain-Snow,303
2013-3-12,30,24,17,23,20,16,93,81,69,30.28,30.11,29.97,10,9,2,26,12,36,0.00,6,Rain-Snow,294
2013-3-13,30,20,10,23,16,7,93,78,64,30.42,30.34,30.24,10,10,9,10,6,13,0.00,1,Snow,218
2013-3-14,46,38,30,37,29,21,100,73,64,30.21,30.10,30.05,10,10,6,15,9,25,0.00,2,,230
2013-3-15,51,42,32,41,36,30,100,87,66,30.04,29.84,29.73,10,7,0,14,5,22,0.00,3,Fog,40
2013-3-16,35,30,26,36,25,19,100,81,69,30.20,30.06,29.85,10,9,2,20,12,28,0.00,8,,8
2013-3-17,39,29,19,32,22,14,100,75,60,30.18,29.98,29.78,10,9,2,17,12,25,0.00,5,Snow,107
2013-3-18,33,27,19,32,20,12,100,74,55,30.01,29.84,29.71,10,8,1,29,14,37,0.03,5,Rain-Snow,291
2013-3-19,39,27,15,23,14,5,80,63,46,30.30,30.14,30.02,10,10,10,20,7,25,0.00,1,,319
2013-3-20,28,20,12,12,8,5,74,60,43,30.36,30.27,30.12,10,10,9,24,16,33,0.00,2,Rain-Snow,329
2013-3-21,33,22,12,19,13,7,86,68,41,30.12,30.02,29.93,10,10,10,14,6,16,0.00,2,,88
2013-3-22,33,26,19,23,19,16,93,72,48,30.05,30.01,29.98,10,10,10,12,7,16,0.00,4,,91
2013-3-23,35,30,26,27,22,18,93,74,48,30.12,30.08,30.04,10,9,1,16,8,21,0.00,6,Rain-Snow,36
2013-3-24,30,26,23,27,22,19,100,83,74,30.08,30.02,29.98,10,7,2,22,15,29,0.00,7,Rain-Snow,339
2013-3-25,32,28,23,25,22,21,93,80,64,30.30,30.17,30.04,10,8,2,18,15,26,0.00,8,Rain-Snow,331
2013-3-26,35,28,21,21,18,14,80,68,52,30.35,30.30,30.24,10,10,10,13,7,15,0.00,4,,323
2013-3-27,48,36,23,28,24,19,86,65,40,30.29,30.25,30.20,10,10,10,15,7,20,0.00,2,,123
2013-3-28,55,40,26,36,30,25,93,64,38,30.26,30.23,30.17,10,10,8,13,5,16,0.00,3,,117
2013-3-29,64,48,32,37,33,30,93,59,30,30.24,30.16,30.04,10,10,7,17,8,23,0.00,1,,147
2013-3-30,60,51,42,50,42,32,93,71,47,30.06,29.95,29.90,10,10,4,16,9,24,0.05,6,Rain,280
2013-3-31,50,39,28,37,31,25,100,74,40,30.14,29.99,29.93,10,8,1,25,8,30,0.02,2,Rain-Snow,338